Time;durP1;ratioP1;P1;durP2;ratioP2;P2;SDS_P1;SDS_P2;PMS_P1;PMS_P2;Temp;Humidity;BMP_temperature;BMP_pressure;BME280_temperature;BME280_humidity;BME280_pressure;Samples;Min_cycle;Max_cycle;Signal;HPM_P1;HPM_P2
2023/11/26 00:01:27;;;;;;;2.40;1.10;;;8.70;64.80;;;;;;5047719;28;20263;-49
2023/11/26 00:03:53;;;;;;;6.37;1.73;;;8.60;65.00;;;;;;5051584;28;20193;-53
2023/11/26 00:06:18;;;;;;;3.33;1.17;;;8.50;65.20;;;;;;5048820;28;20187;-50
2023/11/26 00:08:44;;;;;;;1.83;1.63;;;8.50;65.50;;;;;;5048197;28;20224;-50
2023/11/26 00:11:10;;;;;;;1.43;1.33;;;8.40;65.60;;;;;;5046979;28;20180;-47
2023/11/26 00:13:35;;;;;;;2.67;1.77;;;8.50;65.30;;;;;;5047844;28;20806;-48
2023/11/26 00:16:03;;;;;;;5.27;1.90;;;8.40;65.40;;;;;;5050859;28;20446;-49
2023/11/26 00:18:29;;;;;;;3.47;1.80;;;8.40;65.60;;;;;;5046554;28;20221;-50
2023/11/26 00:20:55;;;;;;;3.00;1.77;;;8.50;65.40;;;;;;5048977;28;20509;-47
2023/11/26 00:23:21;;;;;;;2.37;2.17;;;8.50;65.40;;;;;;5049498;28;20286;-50
2023/11/26 00:25:46;;;;;;;3.40;2.30;;;8.50;65.40;;;;;;5048815;28;20200;-51
2023/11/26 00:28:12;;;;;;;2.83;2.60;;;8.50;65.40;;;;;;5049451;28;20806;-49
2023/11/26 00:30:38;;;;;;;4.27;2.93;;;8.40;65.50;;;;;;5046964;28;20197;-48
2023/11/26 00:33:03;;;;;;;3.50;2.20;;;8.40;65.50;;;;;;5048067;28;20455;-48
2023/11/26 00:35:29;;;;;;;4.03;2.77;;;8.30;65.90;;;;;;5043649;28;20185;-52
2023/11/26 00:37:55;;;;;;;4.77;2.60;;;8.20;66.20;;;;;;5047356;28;20275;-51
2023/11/26 00:40:24;;;;;;;2.83;2.63;;;8.40;66.00;;;;;;5048051;28;20702;-52
2023/11/26 00:42:50;;;;;;;2.77;2.30;;;8.30;65.60;;;;;;5046264;28;20715;-50
2023/11/26 00:45:16;;;;;;;5.03;2.70;;;8.10;66.20;;;;;;5048546;28;20439;-50
2023/11/26 00:47:41;;;;;;;3.33;3.00;;;8.20;66.60;;;;;;5045566;28;20423;-49
2023/11/26 00:50:08;;;;;;;6.37;3.20;;;8.30;66.40;;;;;;5046135;28;20196;-50
2023/11/26 00:52:34;;;;;;;6.53;4.00;;;8.40;66.00;;;;;;5049869;28;20686;-51
2023/11/26 00:55:00;;;;;;;4.63;3.73;;;8.50;65.80;;;;;;5050756;28;20454;-51
2023/11/26 00:57:26;;;;;;;4.53;3.10;;;8.50;65.60;;;;;;5045870;28;20444;-49
2023/11/26 00:59:52;;;;;;;5.20;3.33;;;8.60;65.40;;;;;;5048719;28;20208;-49
2023/11/26 01:02:21;;;;;;;3.50;3.20;;;8.60;65.00;;;;;;5047600;28;20507;-51
2023/11/26 01:04:47;;;;;;;3.63;3.33;;;8.60;64.90;;;;;;5048003;28;20439;-48
2023/11/26 01:07:13;;;;;;;6.87;3.30;;;8.60;64.90;;;;;;5047769;28;20440;-50
2023/11/26 01:09:38;;;;;;;5.67;3.60;;;8.60;65.00;;;;;;5047019;28;20208;-50
2023/11/26 01:12:04;;;;;;;6.37;3.90;;;8.70;65.10;;;;;;5046108;28;20177;-50
2023/11/26 01:14:30;;;;;;;4.77;3.40;;;8.70;64.90;;;;;;5046829;28;20185;-49
2023/11/26 01:16:56;;;;;;;5.10;3.60;;;8.70;64.70;;;;;;5048270;28;20879;-49
2023/11/26 01:19:22;;;;;;;6.00;3.90;;;8.80;64.40;;;;;;5047950;28;20459;-52
2023/11/26 01:21:47;;;;;;;3.67;3.03;;;8.80;64.30;;;;;;5048054;28;20217;-49
2023/11/26 01:24:13;;;;;;;5.83;3.90;;;8.80;64.10;;;;;;5050460;28;20234;-51
2023/11/26 01:26:39;;;;;;;4.87;3.00;;;8.80;64.00;;;;;;5044865;28;20215;-50
2023/11/26 01:29:04;;;;;;;3.37;3.07;;;8.90;63.90;;;;;;5045382;28;20214;-50
2023/11/26 01:31:30;;;;;;;6.03;3.47;;;8.80;63.80;;;;;;5046793;28;20188;-50
2023/11/26 01:33:56;;;;;;;3.03;2.73;;;8.90;63.90;;;;;;5049398;28;20204;-50
2023/11/26 01:36:21;;;;;;;5.20;3.27;;;8.80;63.80;;;;;;5047493;28;20184;-49
2023/11/26 01:38:47;;;;;;;5.10;3.27;;;8.90;63.90;;;;;;5048596;28;20212;-48
2023/11/26 01:41:13;;;;;;;4.20;3.00;;;8.90;64.10;;;;;;5044329;28;20656;-51
2023/11/26 01:43:38;;;;;;;6.93;4.17;;;8.90;63.90;;;;;;5047180;28;20221;-49
2023/11/26 01:46:07;;;;;;;4.20;3.00;;;8.90;64.00;;;;;;5047315;28;20528;-50
2023/11/26 01:48:36;;;;;;;5.33;3.33;;;8.80;64.10;;;;;;5045499;28;20208;-49
2023/11/26 01:51:05;;;;;;;4.33;2.80;;;8.80;64.30;;;;;;5046743;28;20838;-52
2023/11/26 01:53:32;;;;;;;7.20;3.53;;;8.90;64.40;;;;;;5043575;28;20455;-48
2023/11/26 01:55:59;;;;;;;4.70;3.40;;;8.90;64.30;;;;;;5045734;28;20451;-47
2023/11/26 01:58:25;;;;;;;4.13;2.97;;;8.90;64.30;;;;;;5048938;28;20443;-51
2023/11/26 02:00:51;;;;;;;4.83;4.00;;;8.90;64.30;;;;;;5044318;28;20535;-52
2023/11/26 02:03:17;;;;;;;11.87;3.67;;;8.90;64.20;;;;;;5047019;28;20216;-51
2023/11/26 02:05:43;;;;;;;6.47;3.77;;;8.90;64.10;;;;;;5045026;28;20446;-49
2023/11/26 02:08:09;;;;;;;4.90;3.53;;;8.90;64.20;;;;;;5047088;28;20181;-49
2023/11/26 02:10:35;;;;;;;6.03;4.10;;;9.00;64.40;;;;;;5046607;28;20489;-49
2023/11/26 02:13:06;;;;;;;5.47;3.97;;;9.00;64.20;;;;;;5047188;28;20455;-49
2023/11/26 02:15:33;;;;;;;6.87;4.30;;;9.00;64.30;;;;;;5046861;28;20185;-50
2023/11/26 02:17:59;;;;;;;5.10;4.27;;;9.00;64.30;;;;;;5045218;28;20876;-50
2023/11/26 02:20:24;;;;;;;4.93;3.93;;;9.00;64.20;;;;;;5047934;28;20499;-49
2023/11/26 02:22:50;;;;;;;5.97;4.20;;;9.00;64.20;;;;;;5045880;28;20529;-52
2023/11/26 02:25:15;;;;;;;4.17;3.43;;;9.00;64.10;;;;;;5046836;28;20193;-47
2023/11/26 02:27:41;;;;;;;5.40;4.07;;;9.10;64.30;;;;;;5042311;28;20719;-51
2023/11/26 02:30:10;;;;;;;4.77;4.07;;;9.10;64.10;;;;;;5044482;28;20224;-53
2023/11/26 02:32:35;;;;;;;8.10;4.33;;;9.00;64.10;;;;;;5047035;28;20258;-50
2023/11/26 02:35:02;;;;;;;5.20;4.17;;;9.10;64.20;;;;;;5047800;28;20839;-50
2023/11/26 02:37:27;;;;;;;4.53;3.57;;;9.10;64.10;;;;;;5045981;28;20197;-50
2023/11/26 02:39:53;;;;;;;5.30;4.20;;;9.10;64.40;;;;;;5045811;28;20996;-51
2023/11/26 02:42:18;;;;;;;6.20;5.10;;;9.10;64.40;;;;;;5047074;28;20215;-48
2023/11/26 02:44:44;;;;;;;13.50;6.33;;;9.10;64.10;;;;;;5045296;28;20585;-51
2023/11/26 02:47:09;;;;;;;7.40;5.50;;;9.10;63.90;;;;;;5045078;28;20195;-49
2023/11/26 02:49:35;;;;;;;4.93;4.43;;;9.10;63.80;;;;;;5047749;28;20772;-50
2023/11/26 02:52:01;;;;;;;7.23;5.17;;;9.10;64.10;;;;;;5044202;28;20657;-49
2023/11/26 02:54:26;;;;;;;5.97;4.13;;;9.10;64.10;;;;;;5046989;28;20270;-50
2023/11/26 02:56:52;;;;;;;6.53;4.40;;;9.10;63.90;;;;;;5043221;28;20184;-49
2023/11/26 02:59:17;;;;;;;8.70;5.53;;;9.10;63.90;;;;;;5046387;28;20215;-48
2023/11/26 03:01:43;;;;;;;5.70;4.60;;;9.00;63.60;;;;;;5043243;28;20223;-49
2023/11/26 03:04:09;;;;;;;6.63;4.10;;;8.90;64.40;;;;;;5048605;28;20271;-50
2023/11/26 03:06:35;;;;;;;6.23;4.40;;;8.90;64.70;;;;;;5045607;28;20218;-50
2023/11/26 03:09:10;;;;;;;3.90;3.60;;;8.90;64.70;;;;;;5042395;28;20451;-51
2023/11/26 03:14:20;;;;;;;4.80;3.40;;;8.90;64.30;;;;;;5042203;28;20508;-49
2023/11/26 03:16:46;;;;;;;3.50;2.97;;;8.90;64.30;;;;;;5044559;28;20455;-52
2023/11/26 03:19:12;;;;;;;6.93;3.93;;;8.90;64.30;;;;;;5048056;28;20228;-49
2023/11/26 03:21:45;;;;;;;6.60;3.50;;;8.90;64.10;;;;;;5043253;28;20177;-48
2023/11/26 03:24:15;;;;;;;5.43;3.80;;;8.90;63.80;;;;;;5045529;28;20492;-47
2023/11/26 03:26:41;;;;;;;5.10;3.30;;;9.00;63.60;;;;;;5044655;28;20853;-47
2023/11/26 03:29:07;;;;;;;4.77;4.17;;;9.00;63.50;;;;;;5047230;28;20447;-51
2023/11/26 03:31:33;;;;;;;5.13;3.70;;;9.00;63.40;;;;;;5041534;28;20185;-47
2023/11/26 03:33:59;;;;;;;4.40;3.60;;;8.90;63.10;;;;;;5045995;28;20226;-51
2023/11/26 03:36:24;;;;;;;5.23;3.73;;;8.90;63.10;;;;;;5042075;28;20799;-49
2023/11/26 03:38:51;;;;;;;4.97;3.77;;;8.90;63.10;;;;;;5045485;28;20479;-49
2023/11/26 03:41:16;;;;;;;4.83;3.37;;;8.90;63.30;;;;;;5044231;28;20238;-51
2023/11/26 03:43:42;;;;;;;5.77;3.90;;;8.90;63.30;;;;;;5045140;28;20494;-49
2023/11/26 03:46:07;;;;;;;7.20;3.00;;;8.90;63.20;;;;;;5046665;28;20189;-47
2023/11/26 03:48:33;;;;;;;3.80;3.30;;;8.90;63.20;;;;;;5047376;28;20564;-53
2023/11/26 03:50:59;;;;;;;6.27;3.20;;;8.90;63.10;;;;;;5042994;28;20200;-47
2023/11/26 03:53:24;;;;;;;4.77;3.37;;;8.90;63.20;;;;;;5042158;28;20247;-49
2023/11/26 03:55:50;;;;;;;5.83;2.93;;;8.90;63.50;;;;;;5045059;28;20192;-51
2023/11/26 03:58:18;;;;;;;4.13;3.07;;;8.90;63.60;;;;;;5045071;28;20670;-50
2023/11/26 04:00:44;;;;;;;11.53;3.67;;;8.80;63.60;;;;;;5040323;28;20177;-48
2023/11/26 04:03:09;;;;;;;3.83;3.20;;;8.80;63.60;;;;;;5046831;28;20471;-49
2023/11/26 04:05:35;;;;;;;3.97;3.07;;;8.90;63.70;;;;;;5044082;28;20689;-49
2023/11/26 04:08:01;;;;;;;4.90;3.77;;;8.90;63.50;;;;;;5039640;28;20185;-52
2023/11/26 04:10:27;;;;;;;4.97;3.97;;;8.90;63.40;;;;;;5039240;28;20291;-50
2023/11/26 04:12:53;;;;;;;4.87;3.50;;;8.90;63.20;;;;;;5043513;28;21009;-49
2023/11/26 04:15:22;;;;;;;5.50;4.07;;;8.90;63.10;;;;;;5044168;28;20184;-49
2023/11/26 04:17:48;;;;;;;4.63;3.43;;;8.80;62.60;;;;;;5044665;28;20188;-49
2023/11/26 04:20:14;;;;;;;4.90;3.67;;;8.80;63.30;;;;;;5044113;28;20464;-49
2023/11/26 04:22:39;;;;;;;4.40;3.00;;;8.80;63.40;;;;;;5040503;28;20220;-49
2023/11/26 04:25:05;;;;;;;6.67;3.60;;;8.90;63.40;;;;;;5040605;28;20188;-51
2023/11/26 04:27:31;;;;;;;7.07;4.60;;;8.90;63.30;;;;;;5047550;28;20219;-48
2023/11/26 04:29:58;;;;;;;4.50;3.53;;;8.90;63.20;;;;;;5049668;28;20209;-50
2023/11/26 04:32:24;;;;;;;4.87;3.93;;;8.90;63.20;;;;;;5050903;28;20192;-48
2023/11/26 04:34:49;;;;;;;4.80;3.30;;;8.90;63.30;;;;;;5047354;28;20444;-49
2023/11/26 04:37:15;;;;;;;3.57;3.20;;;8.90;63.30;;;;;;5049674;28;20489;-48
2023/11/26 04:39:41;;;;;;;6.17;4.37;;;8.90;63.30;;;;;;5045513;28;20208;-48
2023/11/26 04:42:07;;;;;;;6.37;3.30;;;8.90;63.40;;;;;;5049877;28;20550;-48
2023/11/26 04:44:33;;;;;;;5.57;4.07;;;8.90;63.40;;;;;;5047517;28;20296;-48
2023/11/26 04:47:02;;;;;;;4.17;3.40;;;8.90;63.40;;;;;;5048627;28;20549;-48
2023/11/26 04:49:27;;;;;;;3.30;3.00;;;8.80;63.50;;;;;;5044817;28;20291;-49
2023/11/26 04:51:53;;;;;;;4.40;3.40;;;8.90;63.60;;;;;;5046827;28;20542;-49
2023/11/26 04:54:21;;;;;;;4.30;3.50;;;8.90;63.60;;;;;;5046413;28;20203;-49
2023/11/26 04:56:46;;;;;;;5.47;4.07;;;8.80;63.50;;;;;;5043346;28;20721;-49
2023/11/26 04:59:12;;;;;;;5.23;3.77;;;8.80;63.80;;;;;;5039542;28;20454;-49
2023/11/26 05:01:43;;;;;;;4.83;3.93;;;8.80;64.00;;;;;;5043627;28;20933;-50
2023/11/26 05:04:10;;;;;;;8.97;3.10;;;8.80;64.20;;;;;;5048067;28;20280;-49
2023/11/26 05:06:35;;;;;;;5.20;4.40;;;8.80;64.40;;;;;;5048136;28;20535;-49
2023/11/26 05:09:01;;;;;;;6.30;3.93;;;8.80;64.30;;;;;;5046283;28;20626;-47
2023/11/26 05:11:27;;;;;;;6.77;3.90;;;8.80;64.30;;;;;;5044683;28;20637;-48
2023/11/26 05:13:53;;;;;;;4.60;3.23;;;8.90;64.30;;;;;;5038095;28;20194;-49
2023/11/26 05:16:19;;;;;;;5.40;4.30;;;8.90;64.20;;;;;;5041846;28;21154;-50
2023/11/26 05:18:45;;;;;;;5.10;3.80;;;8.90;63.90;;;;;;5045915;28;20208;-50
2023/11/26 05:21:12;;;;;;;5.80;3.73;;;8.90;64.80;;;;;;5048365;28;20554;-47
2023/11/26 05:23:38;;;;;;;5.90;4.07;;;8.90;63.80;;;;;;5043782;28;20227;-47
2023/11/26 05:26:04;;;;;;;4.63;3.93;;;8.90;63.70;;;;;;5045675;28;20508;-48
2023/11/26 05:28:30;;;;;;;4.67;4.07;;;8.90;63.60;;;;;;5047648;28;20463;-48
2023/11/26 05:30:55;;;;;;;3.77;3.43;;;8.90;63.30;;;;;;5043541;28;20200;-46
2023/11/26 05:33:21;;;;;;;5.20;3.77;;;8.90;63.30;;;;;;5044090;28;20230;-49
2023/11/26 05:35:47;;;;;;;5.87;5.33;;;8.90;63.50;;;;;;5045528;28;20181;-49
2023/11/26 05:38:13;;;;;;;4.40;4.00;;;8.80;63.40;;;;;;5045188;28;20448;-49
2023/11/26 05:40:39;;;;;;;5.80;4.97;;;8.80;63.70;;;;;;5049778;28;20657;-50
2023/11/26 05:43:04;;;;;;;7.90;4.37;;;8.80;63.70;;;;;;5047044;28;20533;-49
2023/11/26 05:45:30;;;;;;;5.77;4.63;;;8.80;63.70;;;;;;5048423;28;20209;-48
2023/11/26 05:47:55;;;;;;;6.93;3.77;;;8.80;63.50;;;;;;5043376;28;20687;-50
2023/11/26 05:50:21;;;;;;;4.30;3.43;;;8.90;63.50;;;;;;5046048;28;20212;-51
2023/11/26 05:52:46;;;;;;;4.93;4.10;;;8.80;63.20;;;;;;5043727;28;20185;-47
2023/11/26 05:55:12;;;;;;;7.03;3.63;;;8.80;63.10;;;;;;5047960;28;20196;-50
2023/11/26 05:57:38;;;;;;;5.73;3.70;;;8.80;63.20;;;;;;5044370;28;20818;-49
2023/11/26 06:00:04;;;;;;;5.50;3.50;;;8.80;63.10;;;;;;5045766;28;20196;-53
2023/11/26 06:02:30;;;;;;;6.50;3.77;;;8.80;62.80;;;;;;5040121;28;20223;-48
2023/11/26 06:04:56;;;;;;;4.07;3.10;;;8.80;62.70;;;;;;5043862;28;20458;-49
2023/11/26 06:07:22;;;;;;;4.97;3.37;;;8.80;62.90;;;;;;5045267;28;20188;-50
2023/11/26 06:09:47;;;;;;;5.33;3.20;;;8.70;63.00;;;;;;5044167;28;20474;-48
2023/11/26 06:12:13;;;;;;;4.43;3.23;;;8.70;63.20;;;;;;5047538;28;20609;-49
2023/11/26 06:14:38;;;;;;;3.47;2.50;;;8.70;63.40;;;;;;5045033;28;20625;-48
2023/11/26 06:17:04;;;;;;;4.27;3.00;;;8.70;63.40;;;;;;5044996;28;20203;-49
2023/11/26 06:19:29;;;;;;;4.07;3.30;;;8.80;63.60;;;;;;5047895;28;20216;-50
2023/11/26 06:21:55;;;;;;;3.40;3.10;;;8.80;63.60;;;;;;5044567;28;20229;-49
2023/11/26 06:24:20;;;;;;;6.63;3.30;;;8.80;63.70;;;;;;5048539;28;20192;-49
2023/11/26 06:26:46;;;;;;;5.17;3.77;;;8.80;63.70;;;;;;5041022;28;20181;-48
2023/11/26 06:29:12;;;;;;;4.40;3.10;;;8.80;63.70;;;;;;5047547;28;20215;-50
2023/11/26 06:31:39;;;;;;;3.30;3.00;;;8.80;63.80;;;;;;5043961;28;20189;-51
2023/11/26 06:34:04;;;;;;;4.17;3.40;;;8.80;63.80;;;;;;5043983;28;20447;-48
2023/11/26 06:36:30;;;;;;;3.93;3.10;;;8.90;63.90;;;;;;5041621;28;20455;-49
2023/11/26 06:38:56;;;;;;;4.03;3.73;;;8.90;63.70;;;;;;5045222;28;20714;-49
2023/11/26 06:41:31;;;;;;;3.70;3.20;;;8.80;63.80;;;;;;5042802;28;20188;-50
2023/11/26 06:43:57;;;;;;;3.20;2.90;;;8.80;63.80;;;;;;5046121;28;20502;-50
2023/11/26 06:46:24;;;;;;;4.43;3.70;;;8.80;63.80;;;;;;5045868;28;20455;-47
2023/11/26 06:48:50;;;;;;;4.10;2.80;;;8.90;64.80;;;;;;5044588;28;20446;-50
2023/11/26 06:51:19;;;;;;;8.30;3.30;;;9.10;65.90;;;;;;5046947;28;21236;-51
2023/11/26 06:53:46;;;;;;;4.83;2.80;;;9.20;66.40;;;;;;5041248;28;20466;-48
2023/11/26 06:56:11;;;;;;;5.97;2.57;;;9.50;66.00;;;;;;5044422;28;20431;-49
2023/11/26 06:58:41;;;;;;;9.73;2.40;;;9.70;65.20;;;;;;5048189;28;20824;-50
2023/11/26 07:01:07;;;;;;;4.50;2.67;;;9.80;64.10;;;;;;5042658;28;20686;-51
2023/11/26 07:03:34;;;;;;;3.40;2.63;;;9.90;63.70;;;;;;5045173;28;20483;-51
2023/11/26 07:06:00;;;;;;;6.07;3.00;;;10.10;61.40;;;;;;5044807;28;20575;-48
2023/11/26 07:08:29;;;;;;;2.90;2.13;;;10.10;60.80;;;;;;5046559;28;20450;-48
2023/11/26 07:10:54;;;;;;;7.40;2.43;;;10.20;60.40;;;;;;5040181;28;20446;-51
2023/11/26 07:13:21;;;;;;;3.20;2.67;;;10.20;60.00;;;;;;5046483;28;20474;-49
2023/11/26 07:15:47;;;;;;;5.07;2.80;;;10.40;59.50;;;;;;5043634;28;20233;-50
2023/11/26 07:18:14;;;;;;;2.30;2.10;;;10.40;58.80;;;;;;5043151;28;20458;-49
2023/11/26 07:20:40;;;;;;;2.90;2.00;;;10.50;58.70;;;;;;5045225;28;20848;-47
2023/11/26 07:23:06;;;;;;;2.53;1.77;;;10.40;58.20;;;;;;5035094;28;20493;-48
2023/11/26 07:25:32;;;;;;;2.63;1.73;;;10.10;57.10;;;;;;5043309;28;20438;-49
2023/11/26 07:27:58;;;;;;;2.20;1.80;;;9.80;58.50;;;;;;5040942;28;20447;-47
2023/11/26 07:30:24;;;;;;;3.23;2.00;;;9.50;59.30;;;;;;5039741;28;20458;-46
2023/11/26 07:32:52;;;;;;;3.03;1.77;;;9.40;60.00;;;;;;5043959;28;20686;-47
2023/11/26 07:35:17;;;;;;;2.47;1.40;;;9.40;60.00;;;;;;5044677;28;20219;-47
2023/11/26 07:37:43;;;;;;;1.80;1.70;;;9.40;60.20;;;;;;5046688;28;20891;-48
2023/11/26 07:40:15;;;;;;;2.90;2.33;;;9.50;59.80;;;;;;5040851;28;20640;-48
2023/11/26 07:42:41;;;;;;;2.60;1.70;;;9.50;59.90;;;;;;5041751;28;20212;-47
2023/11/26 07:45:11;;;;;;;2.10;1.90;;;9.60;59.90;;;;;;5046100;28;20557;-50
2023/11/26 07:47:37;;;;;;;4.10;1.97;;;9.60;59.80;;;;;;5044779;28;20446;-50
2023/11/26 07:50:06;;;;;;;2.03;1.83;;;9.60;59.90;;;;;;5048328;28;20447;-48
2023/11/26 07:52:35;;;;;;;3.20;2.00;;;9.70;59.90;;;;;;5046872;28;20797;-49
2023/11/26 07:55:04;;;;;;;2.07;1.90;;;9.80;60.00;;;;;;5044987;28;20463;-48
2023/11/26 07:57:30;;;;;;;2.23;2.03;;;9.80;59.80;;;;;;5040374;28;20838;-50
2023/11/26 07:59:57;;;;;;;2.40;2.20;;;9.90;59.70;;;;;;5042577;28;20494;-50
2023/11/26 08:02:23;;;;;;;2.63;2.20;;;10.00;58.90;;;;;;5046754;28;20552;-49
2023/11/26 08:04:53;;;;;;;1.77;1.20;;;10.00;58.80;;;;;;5047973;28;20465;-49
2023/11/26 08:07:23;;;;;;;4.03;2.90;;;10.10;58.70;;;;;;5050504;28;20815;-48
2023/11/26 08:09:56;;;;;;;8.90;6.17;;;10.00;58.70;;;;;;5044268;28;20477;-46
2023/11/26 08:12:23;;;;;;;4.83;4.13;;;10.10;58.60;;;;;;5047527;28;20465;-47
2023/11/26 08:14:52;;;;;;;7.17;3.83;;;10.00;58.60;;;;;;5047088;28;20427;-52
2023/11/26 08:17:19;;;;;;;3.90;3.07;;;10.10;58.90;;;;;;5042773;28;20857;-51
2023/11/26 08:19:45;;;;;;;3.80;3.30;;;10.10;59.50;;;;;;5048685;28;20454;-48
2023/11/26 08:22:12;;;;;;;4.00;3.03;;;10.20;59.10;;;;;;5048776;28;20505;-47
2023/11/26 08:24:42;;;;;;;3.20;2.60;;;10.10;58.70;;;;;;5052026;28;20435;-49
2023/11/26 08:27:11;;;;;;;3.07;2.20;;;10.10;58.70;;;;;;5046007;28;20450;-50
2023/11/26 08:29:38;;;;;;;3.00;2.37;;;10.00;58.90;;;;;;5042952;28;20478;-47
2023/11/26 08:32:04;;;;;;;4.53;3.30;;;9.90;60.00;;;;;;5048814;28;20471;-49
2023/11/26 08:34:36;;;;;;;3.60;3.30;;;9.90;60.10;;;;;;5047053;28;20443;-48
2023/11/26 08:37:05;;;;;;;4.67;3.50;;;9.80;60.30;;;;;;5044958;28;20469;-48
2023/11/26 08:39:33;;;;;;;6.60;3.30;;;9.90;60.50;;;;;;5047261;28;20463;-48
2023/11/26 08:41:59;;;;;;;3.80;3.50;;;9.80;60.50;;;;;;5043492;28;20992;-49
2023/11/26 08:44:24;;;;;;;9.43;5.53;;;9.80;60.80;;;;;;5046371;28;20450;-49
2023/11/26 08:46:50;;;;;;;7.63;4.47;;;9.70;61.20;;;;;;5044005;28;20180;-49
2023/11/26 08:49:20;;;;;;;4.67;3.70;;;9.70;61.80;;;;;;5046109;28;20925;-50
2023/11/26 08:51:46;;;;;;;6.63;3.97;;;9.60;62.20;;;;;;5044548;28;20176;-51
2023/11/26 08:54:12;;;;;;;3.97;3.50;;;9.60;62.70;;;;;;5042863;28;20550;-49
2023/11/26 08:56:38;;;;;;;5.80;3.70;;;9.50;63.80;;;;;;5045089;28;20529;-51
2023/11/26 08:59:04;;;;;;;5.70;3.13;;;9.50;63.30;;;;;;5046760;28;20216;-48
2023/11/26 09:01:30;;;;;;;3.37;2.80;;;9.60;63.60;;;;;;5042061;28;20268;-47
2023/11/26 09:03:56;;;;;;;4.57;3.27;;;9.50;63.20;;;;;;5046005;28;20331;-48
2023/11/26 09:06:21;;;;;;;3.37;3.07;;;9.50;63.60;;;;;;5041975;28;20502;-49
2023/11/26 09:08:50;;;;;;;3.80;3.03;;;9.50;64.10;;;;;;5044106;28;20983;-47
2023/11/26 09:11:16;;;;;;;3.73;3.03;;;9.60;64.10;;;;;;5038359;28;20185;-47
2023/11/26 09:13:42;;;;;;;3.90;2.87;;;9.60;63.90;;;;;;5037359;28;20435;-48
2023/11/26 09:16:08;;;;;;;5.00;3.10;;;9.70;63.70;;;;;;5038372;28;20766;-49
2023/11/26 09:18:37;;;;;;;3.73;3.10;;;9.70;64.00;;;;;;5043181;28;20265;-49
2023/11/26 09:21:03;;;;;;;3.03;2.77;;;9.80;64.00;;;;;;5042985;28;20212;-49
2023/11/26 09:23:29;;;;;;;5.13;3.17;;;9.80;64.50;;;;;;5043737;28;20475;-48
2023/11/26 09:25:55;;;;;;;3.23;2.93;;;9.90;63.80;;;;;;5044561;28;20463;-48
2023/11/26 09:28:21;;;;;;;7.43;3.20;;;9.90;63.70;;;;;;5037491;28;20982;-47
2023/11/26 09:30:47;;;;;;;3.07;2.80;;;9.90;63.50;;;;;;5038795;28;20435;-48
2023/11/26 09:33:12;;;;;;;5.40;3.63;;;10.00;62.30;;;;;;5040149;28;20810;-49
2023/11/26 09:35:38;;;;;;;6.87;3.40;;;10.00;62.30;;;;;;5042724;28;20267;-47
2023/11/26 09:38:04;;;;;;;4.47;3.63;;;10.00;62.30;;;;;;5038043;28;20656;-50
2023/11/26 09:40:30;;;;;;;5.27;4.60;;;10.00;62.60;;;;;;5041887;28;20455;-47
2023/11/26 09:42:56;;;;;;;5.73;3.77;;;10.00;62.80;;;;;;5038763;28;20224;-47
2023/11/26 09:45:22;;;;;;;7.10;3.80;;;10.00;62.90;;;;;;5039397;28;20182;-47
2023/11/26 09:47:48;;;;;;;4.40;3.30;;;10.10;63.20;;;;;;5039698;28;20435;-50
2023/11/26 09:50:14;;;;;;;5.40;3.20;;;10.10;63.20;;;;;;5040056;28;20474;-49
2023/11/26 09:52:40;;;;;;;4.67;3.20;;;10.10;63.00;;;;;;5039474;28;20518;-49
2023/11/26 09:55:07;;;;;;;9.30;3.90;;;10.20;62.90;;;;;;5040967;28;20204;-47
2023/11/26 09:57:33;;;;;;;5.30;3.83;;;10.20;62.40;;;;;;5036025;28;20443;-47
2023/11/26 10:00:01;;;;;;;5.43;3.40;;;10.20;62.10;;;;;;5042075;28;20471;-49
2023/11/26 10:02:26;;;;;;;5.80;3.57;;;10.20;62.40;;;;;;5040891;28;20815;-50
2023/11/26 10:04:54;;;;;;;4.50;3.70;;;10.30;62.30;;;;;;5040297;28;20440;-49
2023/11/26 10:07:36;;;;;;;3.90;3.60;;;10.30;62.60;;;;;;5042075;28;20180;-50
2023/11/26 10:10:09;;;;;;;7.07;5.13;;;10.40;63.80;;;;;;5040165;28;20468;-50
2023/11/26 10:13:03;;;;;;;5.90;4.50;;;10.30;63.40;;;;;;5041210;28;20882;-50
2023/11/26 10:15:31;;;;;;;5.17;4.20;;;10.40;63.70;;;;;;5039916;28;20443;-50
2023/11/26 10:18:02;;;;;;;5.60;5.00;;;10.30;63.50;;;;;;5045507;28;20442;-48
2023/11/26 10:20:28;;;;;;;5.87;4.60;;;10.20;63.70;;;;;;5042498;28;20446;-49
2023/11/26 10:22:53;;;;;;;4.97;4.20;;;10.40;63.70;;;;;;5045764;28;20474;-51
2023/11/26 10:25:19;;;;;;;4.53;4.13;;;10.10;63.60;;;;;;5039585;28;20208;-48
2023/11/26 10:27:46;;;;;;;5.63;4.00;;;10.00;64.30;;;;;;5037491;28;20185;-51
2023/11/26 10:30:24;;;;;;;10.30;3.90;;;9.80;65.40;;;;;;5037663;28;20213;-48
2023/11/26 10:33:07;;;;;;;5.00;4.00;;;9.70;66.20;;;;;;5035712;28;20884;-49
2023/11/26 10:35:54;;;;;;;7.47;4.00;;;9.70;65.80;;;;;;5046867;28;20435;-50
2023/11/26 10:38:24;;;;;;;7.60;4.10;;;9.60;66.00;;;;;;5039492;28;20531;-49
2023/11/26 10:40:50;;;;;;;7.03;4.20;;;9.70;66.50;;;;;;5044866;28;20431;-50
2023/11/26 10:43:19;;;;;;;7.80;4.80;;;9.60;66.40;;;;;;5041615;28;20482;-48
2023/11/26 10:45:44;;;;;;;7.90;4.40;;;9.90;66.20;;;;;;5038464;28;20442;-49
2023/11/26 10:48:14;;;;;;;8.10;4.47;;;9.90;65.70;;;;;;5037739;28;20447;-51
2023/11/26 10:50:52;;;;;;;5.73;3.30;;;9.80;66.10;;;;;;5042676;28;20660;-48
2023/11/26 10:53:27;;;;;;;4.30;3.80;;;9.90;66.10;;;;;;5038180;28;20459;-47
2023/11/26 10:55:55;;;;;;;4.57;3.57;;;9.90;65.40;;;;;;5041261;28;20550;-51
2023/11/26 10:58:28;;;;;;;6.70;4.10;;;9.90;64.70;;;;;;5040759;28;20443;-46
2023/11/26 11:00:58;;;;;;;9.73;4.20;;;9.90;64.90;;;;;;5037317;28;21094;-48
2023/11/26 11:03:25;;;;;;;4.73;3.70;;;10.00;64.00;;;;;;5042299;28;20480;-47
2023/11/26 11:05:51;;;;;;;4.43;3.30;;;10.00;63.70;;;;;;5041033;28;21248;-49
2023/11/26 11:08:17;;;;;;;5.07;3.60;;;10.10;62.70;;;;;;5038580;28;20962;-49
2023/11/26 11:10:57;;;;;;;5.73;3.17;;;10.20;62.40;;;;;;5039081;28;20523;-49
2023/11/26 11:13:24;;;;;;;3.83;3.03;;;10.40;62.40;;;;;;5042899;28;20195;-48
2023/11/26 11:15:50;;;;;;;11.93;4.00;;;10.40;63.30;;;;;;5039516;28;20427;-50
2023/11/26 11:18:27;;;;;;;6.60;3.37;;;10.30;62.30;;;;;;5039974;28;21329;-50
2023/11/26 11:21:12;;;;;;;6.33;3.70;;;10.40;61.80;;;;;;5044613;28;20446;-47
2023/11/26 11:23:42;;;;;;;6.10;4.17;;;10.40;61.90;;;;;;5042082;28;20958;-50
2023/11/26 11:26:13;;;;;;;5.33;3.73;;;10.30;62.20;;;;;;5039821;28;20435;-49
2023/11/26 11:28:44;;;;;;;6.40;3.27;;;10.50;62.60;;;;;;5039313;28;20447;-48
2023/11/26 11:31:11;;;;;;;5.63;3.17;;;10.50;62.20;;;;;;5036588;28;20431;-49
2023/11/26 11:33:55;;;;;;;6.23;3.13;;;10.20;60.40;;;;;;5039048;28;20867;-47
2023/11/26 11:36:49;;;;;;;9.23;2.97;;;10.30;61.30;;;;;;5039699;28;20522;-50
2023/11/26 11:39:26;;;;;;;3.53;2.40;;;10.20;60.80;;;;;;5039285;28;20476;-49
2023/11/26 11:41:57;;;;;;;4.40;3.07;;;10.40;60.90;;;;;;5041338;28;20430;-51
2023/11/26 11:44:27;;;;;;;3.53;3.00;;;10.60;60.40;;;;;;5040574;28;20428;-50
2023/11/26 11:46:53;;;;;;;4.37;3.67;;;10.70;61.30;;;;;;5048152;28;20418;-51
2023/11/26 11:49:20;;;;;;;6.37;2.87;;;10.80;60.60;;;;;;5042994;28;20550;-50
2023/11/26 11:51:46;;;;;;;9.10;2.97;;;10.80;60.30;;;;;;5046739;28;20443;-49
2023/11/26 11:54:35;;;;;;;6.53;2.80;;;10.90;59.90;;;;;;5045731;28;20873;-52
2023/11/26 11:57:02;;;;;;;4.80;3.40;;;10.90;59.90;;;;;;5046925;28;20192;-52
2023/11/26 11:59:28;;;;;;;3.73;2.70;;;10.80;59.60;;;;;;5049845;28;20543;-49
2023/11/26 12:01:56;;;;;;;7.10;3.00;;;10.80;58.90;;;;;;5047093;28;20656;-49
2023/11/26 12:04:37;;;;;;;5.13;3.40;;;10.50;58.70;;;;;;5041533;28;20575;-49
2023/11/26 12:07:03;;;;;;;9.93;2.63;;;10.60;59.70;;;;;;5039657;28;20466;-49
2023/11/26 12:09:37;;;;;;;4.00;2.40;;;10.70;59.80;;;;;;5045828;28;20471;-49
2023/11/26 12:12:03;;;;;;;3.93;2.60;;;10.70;59.30;;;;;;5042881;28;20196;-49
2023/11/26 12:14:28;;;;;;;5.10;2.77;;;10.70;59.30;;;;;;5045634;28;20454;-49
2023/11/26 12:16:54;;;;;;;5.83;3.23;;;10.80;59.10;;;;;;5041624;28;20533;-54
2023/11/26 12:19:20;;;;;;;5.17;2.67;;;10.70;58.50;;;;;;5041328;28;20799;-51
2023/11/26 12:21:47;;;;;;;3.90;2.63;;;10.80;59.00;;;;;;5041665;28;20667;-49
2023/11/26 12:24:23;;;;;;;5.73;2.87;;;10.70;58.20;;;;;;5045535;28;20216;-49
2023/11/26 12:26:49;;;;;;;3.50;2.33;;;10.60;58.00;;;;;;5041773;28;20958;-51
2023/11/26 12:29:32;;;;;;;5.00;1.90;;;10.60;57.70;;;;;;5041194;28;20470;-49
2023/11/26 12:32:07;;;;;;;4.10;2.83;;;10.80;57.70;;;;;;5039292;28;20424;-49
2023/11/26 12:34:37;;;;;;;3.50;2.20;;;10.80;57.60;;;;;;5046178;28;20439;-50
2023/11/26 12:37:03;;;;;;;4.30;1.80;;;10.80;57.20;;;;;;5046370;28;20895;-50
2023/11/26 12:39:29;;;;;;;4.30;2.20;;;10.60;56.50;;;;;;5044329;28;20448;-50
2023/11/26 12:41:54;;;;;;;2.73;2.10;;;10.50;56.50;;;;;;5039285;28;20544;-49
2023/11/26 12:44:20;;;;;;;3.87;1.97;;;10.60;56.90;;;;;;5041062;28;20193;-51
2023/11/26 12:46:46;;;;;;;3.87;1.90;;;10.50;56.30;;;;;;5042364;28;20188;-50
2023/11/26 12:49:21;;;;;;;3.83;1.60;;;10.30;56.10;;;;;;5038734;28;20965;-48
2023/11/26 12:51:52;;;;;;;5.47;2.20;;;10.40;56.30;;;;;;5041585;28;20607;-50
2023/11/26 12:54:18;;;;;;;4.03;2.17;;;10.30;56.30;;;;;;5042909;28;20633;-50
2023/11/26 12:56:45;;;;;;;3.20;1.50;;;10.40;56.20;;;;;;5043169;28;20934;-49